Aeroporto :
LOGIN :

Iscrizione | Disclaimer

   EN    FR    IT 

 










Sommario :    VFR   VFR Marginale   IFR   IFR Intensivo   IFR Molto Intensivo
Visibilità : 
Base nubi : 
>= 8 km
>= 3000ft
5 / 8 km
1000 / 3000 ft
1500m / 5 km
500 / 1000 ft
800 / 1500m
200 / 500 ft
< 800m
< 200 ft
Simboli :   Temporali  Nebbia  Neve Forte  Precipitazioni Forti  Vento > 20 kt
SIGMETs :   Varie  Temporali  Ghiacco  Turbolenza  Onda orograficha  Ceneri Vulcaniche






- Altitudine del aeroporto : 580 ft


LFOA - Avord

ULTIMO METAR :
  • 110830Z AUTO VRB03KT CAVOK 27/18 Q1015 TEMPO VRB15G30KT 1500 TSRAGR BKN050CB

METARs OBSOLETI :
  • 110800Z AUTO VRB02KT CAVOK 25/18 Q1015 TEMPO BKN070CB
  • 110730Z AUTO VRB03KT CAVOK 24/18 Q1015 TEMPO BKN070CB
  • 110700Z AUTO VRB01KT CAVOK 23/17 Q1015 TEMPO BKN070CB
  • 110630Z AUTO 20002KT CAVOK 23/17 Q1015 TEMPO BKN070CB
  • 110600Z AUTO VRB02KT CAVOK 22/17 Q1015 TEMPO BKN070CB

TAF TAF LFOA
Valido dal 11 a 09 ore il 12 a 09 ore UTC


110800Z 1109/1209 VRB02KT CAVOK
TEMPO 1109/1204 -SHRA BKN070CB
PROB30
TEMPO 1110/1124 VRB15G30KT 1500 TSRAGR BKN050CB



MetMap, La meteo Aeronautica in un colpo d'occhio ! - Copyright ORBIFLY Dicembre 2007 - Disclaimer

ORBIFLY MET'MAP TEAM :

Programmazione e sviluppo : Alexandra Zaïnal
Concezione : Baudouin d'Aumeries
Aiuto per la programmazione : Marc-Olivier Méhu
Supporto tecnico e logistico : Manuel Goepfert
Aiuto per la traduzione : Arnaldo La Scala

Contatto : metmap@orbifly.com




FONTI E CREDITI :

   NOAA